createdAt,value
2018-05-13T00:02:08.342Z,11.00
2018-05-13T00:04:36.630Z,11.40
2018-05-13T00:07:05.708Z,10.60
2018-05-13T00:09:34.021Z,10.53
2018-05-13T00:12:03.069Z,11.50
2018-05-13T00:14:31.395Z,12.73
2018-05-13T00:16:59.801Z,15.13
2018-05-13T00:19:28.083Z,13.97
2018-05-13T00:21:56.394Z,16.17
2018-05-13T00:24:24.674Z,12.90
2018-05-13T00:26:52.949Z,13.97
2018-05-13T00:29:22.767Z,15.10
2018-05-13T00:31:51.056Z,13.53
2018-05-13T00:34:20.938Z,13.37
2018-05-13T00:36:49.335Z,13.37
2018-05-13T00:39:18.391Z,14.50
2018-05-13T00:41:46.702Z,11.57
2018-05-13T00:44:15.874Z,13.27
2018-05-13T00:46:44.173Z,11.77
2018-05-13T00:49:12.414Z,12.30
2018-05-13T00:51:40.797Z,11.07
2018-05-13T00:54:20.979Z,11.83
2018-05-13T00:56:49.250Z,11.47
2018-05-13T00:59:17.545Z,10.93
2018-05-13T01:01:46.574Z,12.90
2018-05-13T01:04:14.866Z,11.27
2018-05-13T01:06:43.134Z,11.77
2018-05-13T01:09:11.422Z,10.40
2018-05-13T01:11:39.719Z,10.30
2018-05-13T01:14:08.100Z,13.07
2018-05-13T01:16:36.329Z,10.27
2018-05-13T01:19:04.605Z,13.77
2018-05-13T01:21:32.849Z,10.70
2018-05-13T01:24:01.123Z,10.40
2018-05-13T01:26:29.386Z,11.87
2018-05-13T01:28:58.579Z,12.43
2018-05-13T01:31:26.797Z,9.73
2018-05-13T01:33:55.119Z,9.53
2018-05-13T01:36:23.371Z,11.00
2018-05-13T01:38:51.631Z,10.17
2018-05-13T01:41:19.874Z,9.53
2018-05-13T01:43:48.136Z,9.77
2018-05-13T01:46:17.172Z,11.20
2018-05-13T01:48:45.486Z,9.80
2018-05-13T01:51:13.797Z,13.83
2018-05-13T01:53:42.056Z,11.13
2018-05-13T01:56:11.081Z,10.77
2018-05-13T01:58:39.414Z,9.80
2018-05-13T02:01:07.651Z,10.83
2018-05-13T02:03:35.958Z,12.07
2018-05-13T02:06:05.003Z,14.47
2018-05-13T02:08:33.268Z,11.23
2018-05-13T02:11:01.564Z,11.87
2018-05-13T02:13:29.858Z,10.43
2018-05-13T02:15:58.178Z,11.83
2018-05-13T02:18:27.199Z,10.97
2018-05-13T02:20:55.674Z,11.30
2018-05-13T02:23:23.958Z,10.40
2018-05-13T02:25:52.234Z,13.00
2018-05-13T02:28:20.515Z,10.40
2018-05-13T02:30:48.784Z,12.03
2018-05-13T02:33:17.201Z,10.90
2018-05-13T02:35:45.477Z,8.93
2018-05-13T02:38:13.738Z,10.47
2018-05-13T02:40:42.043Z,10.83
2018-05-13T02:43:11.071Z,9.37
2018-05-13T02:45:39.527Z,10.57
2018-05-13T02:48:08.530Z,13.90
2018-05-13T02:50:36.801Z,13.03
2018-05-13T02:53:05.082Z,12.87
2018-05-13T02:55:33.552Z,11.13
2018-05-13T02:58:01.858Z,9.83
2018-05-13T03:00:30.170Z,10.20
2018-05-13T03:02:58.425Z,11.97
2018-05-13T03:05:26.711Z,10.27
2018-05-13T03:07:55.004Z,13.53
2018-05-13T03:10:24.154Z,14.03
2018-05-13T03:12:52.466Z,13.03
2018-05-13T03:15:20.814Z,12.83
2018-05-13T03:17:49.113Z,14.37
2018-05-13T03:20:18.153Z,15.07
2018-05-13T03:22:46.638Z,10.53
2018-05-13T03:25:14.919Z,12.23
2018-05-13T03:27:43.218Z,10.77
2018-05-13T03:30:11.488Z,11.17
2018-05-13T03:32:39.769Z,12.57
2018-05-13T03:35:08.030Z,10.93
2018-05-13T03:37:36.326Z,10.40
2018-05-13T03:40:04.619Z,13.23
2018-05-13T03:42:32.892Z,13.57
2018-05-13T03:45:01.148Z,18.17
2018-05-13T03:47:29.432Z,12.07
2018-05-13T03:49:57.708Z,11.20
2018-05-13T03:52:25.992Z,18.73
2018-05-13T03:54:54.267Z,11.60
2018-05-13T03:57:22.523Z,9.20
2018-05-13T03:59:50.819Z,11.20
2018-05-13T04:02:19.084Z,10.30
2018-05-13T04:04:47.391Z,12.80
2018-05-13T04:07:15.767Z,12.33
2018-05-13T04:09:56.441Z,11.03
2018-05-13T04:12:37.720Z,9.50
2018-05-13T04:15:17.994Z,11.07
2018-05-13T04:17:46.287Z,8.10
2018-05-13T04:20:14.546Z,8.30
2018-05-13T04:22:42.829Z,7.57
2018-05-13T04:25:11.148Z,9.07
2018-05-13T04:27:39.571Z,11.10
2018-05-13T04:30:08.012Z,9.80
2018-05-13T04:32:36.348Z,11.20
2018-05-13T04:35:04.616Z,13.13
2018-05-13T04:37:32.889Z,11.13
2018-05-13T04:40:01.212Z,11.97
2018-05-13T04:42:30.239Z,14.67
2018-05-13T04:44:58.716Z,11.70
2018-05-13T04:47:26.984Z,13.07
2018-05-13T04:49:55.252Z,14.43
2018-05-13T04:52:24.338Z,17.00
2018-05-13T04:54:53.393Z,13.43
2018-05-13T04:57:21.737Z,14.30
2018-05-13T04:59:49.990Z,15.70
2018-05-13T05:02:18.290Z,15.80
2018-05-13T05:04:46.667Z,13.63
2018-05-13T05:07:15.010Z,15.10
2018-05-13T05:09:44.126Z,12.03
2018-05-13T05:12:12.405Z,15.73
2018-05-13T05:14:40.686Z,14.10
2018-05-13T05:17:08.981Z,15.67
2018-05-13T05:19:37.333Z,14.43
2018-05-13T05:22:05.626Z,17.00
2018-05-13T05:24:33.891Z,13.20
2018-05-13T05:27:02.173Z,21.43
2018-05-13T05:29:30.450Z,17.10
2018-05-13T05:31:58.725Z,21.90
2018-05-13T05:34:27.013Z,22.10
2018-05-13T05:36:55.292Z,19.80
2018-05-13T05:39:23.583Z,10.20
2018-05-13T05:41:51.866Z,10.90
2018-05-13T05:44:20.132Z,20.07
2018-05-13T05:46:48.410Z,16.73
2018-05-13T05:49:16.709Z,19.57
2018-05-13T05:51:44.975Z,24.77
2018-05-13T05:54:13.363Z,21.17
2018-05-13T05:56:41.634Z,19.47
2018-05-13T05:59:10.695Z,27.47
2018-05-13T06:01:40.530Z,21.87
2018-05-13T06:04:08.795Z,20.27
2018-05-13T06:06:37.052Z,18.40
2018-05-13T06:09:05.362Z,20.37
2018-05-13T06:11:34.242Z,20.00
2018-05-13T06:14:04.082Z,21.43
2018-05-13T06:16:32.346Z,22.37
2018-05-13T06:19:01.374Z,21.17
2018-05-13T06:21:29.659Z,20.13
2018-05-13T06:23:57.991Z,22.43
2018-05-13T06:26:26.269Z,25.87
2018-05-13T06:28:55.321Z,23.67
2018-05-13T06:31:23.653Z,24.30
2018-05-13T06:33:52.005Z,19.03
2018-05-13T06:36:21.248Z,22.97
2018-05-13T06:38:49.551Z,25.43
2018-05-13T06:41:17.860Z,24.27
2018-05-13T06:43:46.866Z,23.03
2018-05-13T06:46:15.163Z,24.80
2018-05-13T06:48:43.433Z,28.00
2018-05-13T06:51:11.880Z,24.87
2018-05-13T06:53:40.138Z,23.73
2018-05-13T06:56:08.401Z,24.57
2018-05-13T06:58:37.512Z,28.53
2018-05-13T07:01:05.838Z,29.17
2018-05-13T07:03:34.146Z,22.37
2018-05-13T07:06:02.446Z,24.50
2018-05-13T07:08:30.722Z,30.97
2018-05-13T07:10:59.047Z,29.93
2018-05-13T07:13:27.387Z,28.67
2018-05-13T07:15:55.647Z,28.03
2018-05-13T07:18:24.758Z,33.10
2018-05-13T07:20:53.033Z,29.13
2018-05-13T07:23:21.379Z,30.60
2018-05-13T07:25:50.418Z,32.93
2018-05-13T07:28:18.686Z,31.57
2018-05-13T07:30:46.956Z,29.40
2018-05-13T07:33:16.015Z,34.43
2018-05-13T07:35:45.049Z,30.93
2018-05-13T07:38:13.316Z,35.63
2018-05-13T07:40:41.596Z,32.57
2018-05-13T07:43:09.945Z,29.20
2018-05-13T07:45:38.289Z,33.47
2018-05-13T07:48:06.569Z,37.57
2018-05-13T07:50:34.855Z,41.60
2018-05-13T07:53:03.168Z,29.90
2018-05-13T07:55:32.190Z,33.37
2018-05-13T07:58:00.480Z,37.90
2018-05-13T08:00:28.794Z,37.83
2018-05-13T08:02:59.506Z,37.97
2018-05-13T08:05:27.832Z,40.90
2018-05-13T08:07:56.850Z,39.07
2018-05-13T08:10:25.157Z,38.67
2018-05-13T08:12:53.432Z,42.90
2018-05-13T08:15:21.729Z,39.90
2018-05-13T08:17:50.006Z,47.13
2018-05-13T08:20:18.351Z,38.00
2018-05-13T08:22:46.621Z,51.07
2018-05-13T08:25:14.875Z,42.53
2018-05-13T08:27:43.188Z,47.13
2018-05-13T08:30:12.266Z,43.83
2018-05-13T08:32:40.594Z,34.00
2018-05-13T08:35:08.906Z,46.17
2018-05-13T08:37:37.179Z,48.47
2018-05-13T08:40:05.481Z,46.70
2018-05-13T08:42:33.771Z,43.90
2018-05-13T08:45:02.825Z,48.13
2018-05-13T08:47:31.107Z,48.77
2018-05-13T08:49:59.356Z,42.93
2018-05-13T08:52:27.635Z,52.47
2018-05-13T08:54:55.927Z,41.80
2018-05-13T08:57:24.220Z,45.20
2018-05-13T08:59:52.510Z,52.40
2018-05-13T09:02:21.553Z,54.10
2018-05-13T09:04:49.815Z,52.07
2018-05-13T09:07:18.102Z,48.93
2018-05-13T09:09:46.375Z,53.23
2018-05-13T09:12:14.672Z,53.63
2018-05-13T09:14:42.934Z,54.47
2018-05-13T09:17:11.298Z,67.87
2018-05-13T09:19:39.663Z,58.73
2018-05-13T09:22:07.971Z,60.17
2018-05-13T09:24:36.387Z,69.33
2018-05-13T09:27:05.478Z,71.07
2018-05-13T09:29:34.546Z,66.27
2018-05-13T09:32:02.865Z,62.40
2018-05-13T09:34:32.075Z,52.90
2018-05-13T09:37:01.102Z,63.47
2018-05-13T09:39:29.401Z,63.57
2018-05-13T09:41:57.827Z,60.60
2018-05-13T09:44:26.150Z,55.60
2018-05-13T09:46:54.593Z,61.63
2018-05-13T09:49:22.894Z,65.60
2018-05-13T09:51:51.155Z,58.07
2018-05-13T09:54:21.477Z,66.63
2018-05-13T09:56:50.074Z,63.43
2018-05-13T09:59:18.906Z,58.37
2018-05-13T10:01:47.184Z,65.17
2018-05-13T10:04:15.486Z,62.57
2018-05-13T10:06:44.017Z,63.80
2018-05-13T10:09:12.298Z,72.57
2018-05-13T10:11:40.607Z,65.60
2018-05-13T10:14:08.914Z,70.23
2018-05-13T10:16:37.182Z,74.13
2018-05-13T10:19:05.459Z,65.47
2018-05-13T10:21:33.736Z,64.33
2018-05-13T10:24:03.711Z,64.63
2018-05-13T10:26:31.993Z,70.53
2018-05-13T10:29:00.292Z,56.37
2018-05-13T10:31:28.580Z,75.27
2018-05-13T10:33:56.835Z,71.13
2018-05-13T10:36:25.158Z,60.10
2018-05-13T10:38:53.431Z,64.03
2018-05-13T10:41:21.722Z,69.43
2018-05-13T10:43:50.749Z,63.90
2018-05-13T10:46:19.068Z,65.20
2018-05-13T10:48:48.224Z,60.77
2018-05-13T10:51:17.296Z,58.40
2018-05-13T10:53:45.561Z,57.53
2018-05-13T10:56:13.883Z,63.17
2018-05-13T10:58:42.172Z,55.87
2018-05-13T11:01:10.437Z,61.57
2018-05-13T11:03:38.727Z,54.47
2018-05-13T11:06:07.029Z,65.03
2018-05-13T11:08:35.289Z,63.70
2018-05-13T11:11:03.632Z,60.03
2018-05-13T11:13:31.897Z,52.27
2018-05-13T11:16:00.170Z,55.90
2018-05-13T11:18:28.466Z,61.50
2018-05-13T11:20:56.731Z,53.83
2018-05-13T11:23:25.015Z,53.00
2018-05-13T11:25:53.315Z,51.80
2018-05-13T11:28:22.355Z,52.00
2018-05-13T11:30:50.650Z,54.63
2018-05-13T11:33:18.939Z,53.77
2018-05-13T11:35:47.222Z,60.63
2018-05-13T11:38:15.511Z,55.67
2018-05-13T11:40:43.799Z,60.00
2018-05-13T11:43:12.074Z,50.30
2018-05-13T11:45:41.120Z,54.33
2018-05-13T11:48:09.405Z,58.47
2018-05-13T11:50:37.669Z,55.03
2018-05-13T11:53:05.985Z,51.87
2018-05-13T11:55:34.232Z,52.50
2018-05-13T11:58:02.919Z,50.27
2018-05-13T12:00:31.178Z,54.70
2018-05-13T12:02:59.454Z,50.00
2018-05-13T12:05:27.750Z,48.30
2018-05-13T12:07:56.019Z,50.80
2018-05-13T12:10:24.440Z,54.90
2018-05-13T12:12:54.988Z,51.47
2018-05-13T12:15:23.341Z,48.33
2018-05-13T12:17:51.681Z,40.67
2018-05-13T12:20:20.793Z,47.83
2018-05-13T12:22:49.162Z,46.50
2018-05-13T12:25:18.174Z,49.57
2018-05-13T12:27:46.489Z,47.13
2018-05-13T12:30:14.766Z,50.07
2018-05-13T12:32:43.028Z,46.77
2018-05-13T12:35:11.319Z,42.87
2018-05-13T12:37:39.592Z,42.83
2018-05-13T12:40:07.886Z,42.53
2018-05-13T12:42:36.195Z,40.70
2018-05-13T12:45:04.447Z,40.87
2018-05-13T12:47:32.757Z,50.17
2018-05-13T12:50:01.053Z,42.10
2018-05-13T12:52:29.332Z,45.63
2018-05-13T12:54:57.638Z,47.10
2018-05-13T12:57:26.006Z,43.70
2018-05-13T12:59:56.862Z,47.80
2018-05-13T13:02:25.221Z,40.77
2018-05-13T13:04:53.387Z,41.87
2018-05-13T13:07:21.699Z,41.20
2018-05-13T13:09:50.129Z,42.43
2018-05-13T13:12:18.474Z,44.87
2018-05-13T13:14:47.506Z,43.97
2018-05-13T13:17:15.816Z,44.70
2018-05-13T13:19:44.890Z,40.53
2018-05-13T13:22:13.183Z,42.93
2018-05-13T13:24:41.432Z,44.53
2018-05-13T13:27:09.747Z,49.83
2018-05-13T13:29:38.036Z,42.00
2018-05-13T13:32:06.321Z,41.73
2018-05-13T13:34:35.456Z,44.00
2018-05-13T13:37:03.773Z,48.40
2018-05-13T13:39:32.866Z,49.83
2018-05-13T13:42:01.986Z,52.73
2018-05-13T13:44:30.275Z,50.77
2018-05-13T13:46:58.627Z,48.33
2018-05-13T13:49:26.910Z,59.40
2018-05-13T13:51:55.188Z,52.87
2018-05-13T13:54:24.276Z,55.53
2018-05-13T13:56:52.557Z,63.87
2018-05-13T13:59:21.061Z,48.87
2018-05-13T14:01:49.256Z,70.50
2018-05-13T14:04:17.554Z,57.93
2018-05-13T14:06:45.829Z,67.30
2018-05-13T14:09:15.632Z,62.00
2018-05-13T14:11:44.057Z,58.10
2018-05-13T14:14:12.383Z,55.17
2018-05-13T14:16:40.690Z,59.03
2018-05-13T14:19:09.738Z,61.20
2018-05-13T14:21:38.030Z,62.20
2018-05-13T14:24:06.408Z,67.43
2018-05-13T14:26:34.684Z,63.00
2018-05-13T14:29:03.883Z,55.17
2018-05-13T14:31:32.883Z,67.47
2018-05-13T14:34:01.942Z,63.17
2018-05-13T14:36:30.376Z,63.13
2018-05-13T14:38:58.704Z,62.70
2018-05-13T14:41:27.013Z,61.93
2018-05-13T14:43:56.121Z,56.83
2018-05-13T14:46:24.503Z,56.17
2018-05-13T14:48:52.968Z,55.40
2018-05-13T14:51:21.345Z,54.60
2018-05-13T14:53:50.407Z,44.30
2018-05-13T14:56:18.693Z,52.67
2018-05-13T14:58:46.963Z,40.30
2018-05-13T15:01:15.266Z,55.50
2018-05-13T15:03:44.318Z,51.20
2018-05-13T15:06:12.584Z,55.10
2018-05-13T15:08:40.834Z,44.63
2018-05-13T15:11:09.119Z,52.53
2018-05-13T15:13:37.462Z,43.03
2018-05-13T15:16:06.502Z,49.10
2018-05-13T15:18:34.782Z,52.10
2018-05-13T15:21:03.102Z,43.93
2018-05-13T15:23:31.395Z,44.47
2018-05-13T15:25:59.709Z,41.70
2018-05-13T15:28:28.001Z,42.03
2018-05-13T15:30:56.271Z,46.63
2018-05-13T15:33:24.546Z,45.80
2018-05-13T15:35:52.850Z,44.33
2018-05-13T15:38:21.150Z,39.33
2018-05-13T15:40:49.517Z,35.70
2018-05-13T15:43:18.127Z,35.67
2018-05-13T15:45:47.395Z,41.27
2018-05-13T15:48:15.707Z,44.00
2018-05-13T15:50:44.028Z,42.07
2018-05-13T15:53:13.087Z,42.40
2018-05-13T15:55:41.504Z,39.30
2018-05-13T15:58:09.873Z,37.90
2018-05-13T16:00:38.152Z,44.13
2018-05-13T16:03:06.421Z,41.97
2018-05-13T16:05:35.535Z,43.33
2018-05-13T16:08:04.590Z,43.80
2018-05-13T16:10:32.901Z,42.43
2018-05-13T16:13:01.951Z,46.87
2018-05-13T16:15:30.245Z,44.10
2018-05-13T16:17:58.562Z,44.20
2018-05-13T16:20:27.601Z,41.07
2018-05-13T16:22:55.877Z,44.33
2018-05-13T16:25:24.119Z,49.27
2018-05-13T16:27:53.166Z,43.77
2018-05-13T16:30:21.570Z,45.97
2018-05-13T16:32:49.808Z,40.13
2018-05-13T16:35:18.294Z,50.83
2018-05-13T16:37:46.567Z,46.50
2018-05-13T16:40:14.818Z,49.50
2018-05-13T16:42:43.112Z,53.60
2018-05-13T16:45:11.457Z,46.97
2018-05-13T16:47:40.499Z,53.30
2018-05-13T16:50:08.736Z,48.07
2018-05-13T16:52:37.034Z,48.23
2018-05-13T16:55:05.311Z,32.07
2018-05-13T16:57:33.567Z,50.40
2018-05-13T17:00:01.857Z,46.07
2018-05-13T17:02:30.171Z,53.83
2018-05-13T17:04:58.392Z,57.17
2018-05-13T17:07:26.677Z,51.77
2018-05-13T17:09:54.972Z,52.27
2018-05-13T17:12:23.229Z,52.87
2018-05-13T17:14:51.551Z,45.43
2018-05-13T17:17:19.916Z,34.77
2018-05-13T17:19:48.885Z,44.27
2018-05-13T17:22:17.182Z,25.93
2018-05-13T17:24:45.479Z,26.60
2018-05-13T17:27:14.533Z,39.50
2018-05-13T17:29:42.856Z,36.23
2018-05-13T17:32:11.086Z,28.57
2018-05-13T17:34:39.378Z,36.00
2018-05-13T17:37:07.706Z,32.03
2018-05-13T17:39:42.288Z,33.13
2018-05-13T17:42:11.717Z,47.20
2018-05-13T17:44:40.044Z,43.10
2018-05-13T17:47:08.318Z,50.03
2018-05-13T17:49:36.652Z,56.40
2018-05-13T17:52:04.897Z,49.47
2018-05-13T17:54:33.152Z,59.20
2018-05-13T17:57:02.199Z,48.00
2018-05-13T17:59:30.490Z,55.17
2018-05-13T18:01:58.747Z,48.57
2018-05-13T18:04:27.046Z,49.93
2018-05-13T18:06:55.325Z,55.17
2018-05-13T18:09:23.625Z,56.83
2018-05-13T18:11:51.894Z,51.40
2018-05-13T18:14:20.180Z,53.97
2018-05-13T18:16:49.256Z,44.10
2018-05-13T18:19:19.117Z,49.07
2018-05-13T18:21:47.527Z,50.43
2018-05-13T18:24:15.831Z,53.20
2018-05-13T18:26:44.138Z,49.90
2018-05-13T18:29:13.173Z,53.10
2018-05-13T18:31:41.543Z,47.27
2018-05-13T18:34:09.818Z,45.67
2018-05-13T18:36:38.083Z,45.73
2018-05-13T18:39:06.356Z,51.43
2018-05-13T18:41:34.596Z,52.07
2018-05-13T18:44:04.342Z,51.83
2018-05-13T18:46:32.621Z,47.47
2018-05-13T18:49:00.874Z,42.50
2018-05-13T18:51:29.161Z,54.07
2018-05-13T18:53:57.450Z,41.60
2018-05-13T18:56:25.878Z,48.13
2018-05-13T18:58:54.206Z,52.57
2018-05-13T19:01:23.222Z,46.03
2018-05-13T19:03:51.611Z,54.17
2018-05-13T19:06:19.861Z,53.07
2018-05-13T19:08:48.245Z,46.00
2018-05-13T19:11:16.527Z,52.67
2018-05-13T19:13:44.806Z,40.17
2018-05-13T19:16:13.075Z,51.93
2018-05-13T19:18:41.335Z,49.80
2018-05-13T19:21:09.602Z,48.50
2018-05-13T19:23:37.863Z,35.43
2018-05-13T19:26:06.095Z,44.50
2018-05-13T19:28:35.369Z,47.20
2018-05-13T19:31:03.830Z,48.20
2018-05-13T19:33:32.146Z,49.80
2018-05-13T19:36:03.677Z,53.67
2018-05-13T19:38:32.416Z,52.03
2018-05-13T19:41:00.687Z,51.27
2018-05-13T19:43:29.057Z,57.10
2018-05-13T19:45:57.411Z,62.60
2018-05-13T19:48:26.540Z,60.43
2018-05-13T19:50:54.826Z,60.17
2018-05-13T19:53:23.110Z,56.67
2018-05-13T19:55:51.449Z,58.23
2018-05-13T19:58:20.444Z,59.73
2018-05-13T20:00:49.508Z,58.50
2018-05-13T20:03:17.958Z,61.17
2018-05-13T20:05:46.215Z,63.53
2018-05-13T20:08:14.450Z,67.13
2018-05-13T20:13:17.472Z,68.50
2018-05-13T20:15:46.527Z,59.20
2018-05-13T20:18:14.810Z,62.80
2018-05-13T20:20:43.115Z,70.20
2018-05-13T20:23:24.183Z,64.23
2018-05-13T20:25:52.458Z,56.20
2018-05-13T20:28:21.632Z,63.83
2018-05-13T20:30:52.396Z,58.17
2018-05-13T20:33:21.479Z,63.73
2018-05-13T20:35:50.535Z,67.47
2018-05-13T20:38:18.791Z,62.00
2018-05-13T20:40:48.475Z,69.43
2018-05-13T20:43:19.006Z,60.77
2018-05-13T20:45:47.275Z,62.70
2018-05-13T20:48:15.517Z,66.20
2018-05-13T20:50:43.764Z,56.03
2018-05-13T20:53:12.024Z,58.87
2018-05-13T20:55:41.014Z,55.90
2018-05-13T20:58:09.282Z,60.03
2018-05-13T21:00:37.511Z,60.47
2018-05-13T21:03:06.559Z,58.20
2018-05-13T21:05:34.838Z,58.67
2018-05-13T21:08:03.086Z,59.53
2018-05-13T21:10:31.343Z,59.33
2018-05-13T21:13:00.383Z,63.17
2018-05-13T21:15:28.639Z,61.87
2018-05-13T21:17:56.890Z,64.13
2018-05-13T21:20:25.234Z,63.13
2018-05-13T21:22:53.550Z,63.57
2018-05-13T21:25:21.795Z,56.23
2018-05-13T21:27:50.082Z,53.70
2018-05-13T21:30:19.151Z,61.90
2018-05-13T21:32:47.353Z,60.57
2018-05-13T21:35:16.360Z,60.10
2018-05-13T21:37:48.095Z,62.40
2018-05-13T21:40:16.439Z,68.40
2018-05-13T21:42:44.702Z,67.73
2018-05-13T21:45:12.941Z,67.33
2018-05-13T21:47:41.272Z,64.10
2018-05-13T21:50:09.519Z,67.83
2018-05-13T21:52:37.758Z,70.07
2018-05-13T21:55:06.039Z,82.93
2018-05-13T21:57:34.317Z,75.17
2018-05-13T22:00:02.562Z,70.20
2018-05-13T22:02:30.823Z,75.30
2018-05-13T22:04:59.083Z,74.47
2018-05-13T22:07:27.330Z,80.77
2018-05-13T22:09:55.661Z,77.37
2018-05-13T22:12:23.969Z,84.20
2018-05-13T22:14:52.244Z,75.30
2018-05-13T22:17:20.539Z,86.17
2018-05-13T22:19:49.528Z,80.27
2018-05-13T22:22:18.610Z,76.33
2018-05-13T22:24:46.874Z,79.23
2018-05-13T22:27:15.147Z,77.70
2018-05-13T22:29:43.390Z,86.10
2018-05-13T22:32:11.656Z,83.80
2018-05-13T22:34:39.924Z,83.40
2018-05-13T22:37:08.178Z,81.67
2018-05-13T22:39:36.448Z,78.87
2018-05-13T22:42:04.698Z,93.53
2018-05-13T22:44:32.930Z,93.40
2018-05-13T22:47:01.983Z,103.93
2018-05-13T22:49:30.245Z,102.43
2018-05-13T22:51:58.617Z,101.90
2018-05-13T22:54:26.869Z,107.17
2018-05-13T22:56:55.156Z,106.40
2018-05-13T22:59:23.419Z,104.33
2018-05-13T23:01:52.530Z,104.93
2018-05-13T23:04:20.808Z,96.50
2018-05-13T23:06:49.087Z,95.80
2018-05-13T23:09:17.431Z,101.50
2018-05-13T23:11:45.782Z,109.57
2018-05-13T23:14:14.086Z,107.40
2018-05-13T23:16:42.375Z,114.20
2018-05-13T23:19:10.650Z,108.87
2018-05-13T23:21:38.926Z,111.00
2018-05-13T23:24:07.221Z,115.70
2018-05-13T23:26:35.482Z,105.87
2018-05-13T23:29:03.753Z,104.30
2018-05-13T23:31:32.023Z,109.13
2018-05-13T23:34:00.319Z,107.43
2018-05-13T23:36:28.590Z,99.97
2018-05-13T23:38:56.862Z,103.40
2018-05-13T23:41:25.146Z,109.67
2018-05-13T23:43:54.170Z,113.13
2018-05-13T23:46:22.463Z,99.63
2018-05-13T23:48:50.707Z,91.90
2018-05-13T23:51:19.001Z,103.17
2018-05-13T23:53:48.038Z,97.50
2018-05-13T23:56:16.346Z,104.77
2018-05-13T23:58:44.794Z,102.13
